Time;durP1;ratioP1;P1;durP2;ratioP2;P2;SDS_P1;SDS_P2;PMS_P1;PMS_P2;Temp;Humidity;BMP_temperature;BMP_pressure;BME280_temperature;BME280_humidity;BME280_pressure;Samples;Min_cycle;Max_cycle;Signal;HPM_P1;HPM_P2
2022/01/06 00:01:42;;;;;;;3.57;3.33;;;;;;;;;;5074992;28;20399;-50
2022/01/06 00:04:08;;;;;;;8.50;4.03;;;;;;;;;;5074663;28;20953;-50
2022/01/06 00:06:38;;;;;;;6.00;4.50;;;;;;;;;;5074491;28;20406;-50
2022/01/06 00:09:06;;;;;;;11.67;3.80;;;;;;;;;;5074575;28;20418;-54
2022/01/06 00:11:32;;;;;;;7.47;3.77;;;;;;;;;;5089896;28;20844;-52
2022/01/06 00:14:08;;;;;;;8.77;4.10;;;;;;;;;;5074732;28;20414;-50
2022/01/06 00:16:57;;;;;;;9.80;4.50;;;;;;;;;;5074533;28;20446;-50
2022/01/06 00:24:53;;;;;;;5.20;3.33;;;;;;;;;;5074310;28;20502;-51
2022/01/06 00:27:19;;;;;;;3.13;3.03;;;;;;;;;;5074488;28;20443;-51
2022/01/06 00:29:45;;;;;;;7.80;3.60;;;;;;;;;;5074318;28;20405;-50
2022/01/06 00:32:11;;;;;;;11.00;4.03;;;;;;;;;;5074300;28;20443;-50
2022/01/06 00:34:37;;;;;;;11.43;3.97;;;;;;;;;;5089890;28;20412;-50
2022/01/06 00:37:03;;;;;;;12.03;4.47;;;;;;;;;;5073142;28;20519;-51
2022/01/06 00:39:29;;;;;;;6.83;4.00;;;;;;;;;;5074270;28;20513;-52
2022/01/06 00:41:58;;;;;;;10.60;3.50;;;;;;;;;;5074261;28;20923;-51
2022/01/06 00:44:24;;;;;;;14.37;4.10;;;;;;;;;;5074060;28;20423;-52
2022/01/06 00:46:51;;;;;;;6.57;3.03;;;;;;;;;;5073950;28;20421;-51
2022/01/06 00:49:17;;;;;;;3.67;3.20;;;;;;;;;;5074164;28;20510;-51
2022/01/06 00:51:46;;;;;;;6.90;3.23;;;;;;;;;;5074276;28;20402;-51
2022/01/06 00:54:12;;;;;;;3.57;2.97;;;;;;;;;;5073898;28;20403;-52
2022/01/06 00:56:38;;;;;;;8.73;3.90;;;;;;;;;;5073588;28;20417;-54
2022/01/06 00:59:04;;;;;;;8.80;2.57;;;;;;;;;;5074163;28;20418;-57
2022/01/06 01:01:31;;;;;;;3.40;3.10;;;;;;;;;;5073832;28;20899;-52
2022/01/06 01:03:57;;;;;;;3.57;3.03;;;;;;;;;;5073710;28;20457;-51
2022/01/06 01:06:23;;;;;;;5.40;3.60;;;;;;;;;;5074039;28;20410;-52
2022/01/06 01:08:49;;;;;;;7.00;2.93;;;;;;;;;;5073729;28;20763;-52
2022/01/06 01:11:15;;;;;;;2.70;2.50;;;;;;;;;;5073647;28;20417;-52
2022/01/06 01:13:55;;;;;;;3.27;3.10;;;;;;;;;;5089083;28;20430;-52
2022/01/06 01:16:26;;;;;;;4.07;3.67;;;;;;;;;;5073618;28;20505;-54
2022/01/06 01:18:52;;;;;;;9.60;3.40;;;;;;;;;;5073679;28;20433;-55
2022/01/06 01:21:20;;;;;;;4.10;2.80;;;;;;;;;;5073473;28;20463;-53
2022/01/06 01:23:46;;;;;;;9.80;2.83;;;;;;;;;;5073369;28;20421;-51
2022/01/06 01:26:12;;;;;;;3.63;3.33;;;;;;;;;;5073175;28;20407;-52
2022/01/06 01:28:44;;;;;;;3.50;3.30;;;;;;;;;;5073172;28;20407;-51
2022/01/06 01:33:43;;;;;;;4.63;2.80;;;;;;;;;;5073314;28;20406;-50
2022/01/06 01:36:09;;;;;;;8.23;3.57;;;;;;;;;;5072847;28;20449;-53
2022/01/06 01:38:37;;;;;;;3.40;3.17;;;;;;;;;;5072868;28;20470;-52
2022/01/06 01:41:03;;;;;;;6.83;3.73;;;;;;;;;;5073259;28;20399;-55
2022/01/06 01:43:29;;;;;;;9.40;4.30;;;;;;;;;;5073078;28;20398;-52
2022/01/06 01:45:57;;;;;;;5.10;3.80;;;;;;;;;;5088748;28;20480;-51
2022/01/06 01:48:31;;;;;;;6.50;3.80;;;;;;;;;;5072699;28;20410;-55
2022/01/06 01:50:57;;;;;;;7.53;3.50;;;;;;;;;;5073084;28;20469;-59
2022/01/06 01:53:23;;;;;;;3.90;3.43;;;;;;;;;;5072834;28;20407;-59
2022/01/06 01:55:49;;;;;;;8.90;4.00;;;;;;;;;;5072868;28;20402;-62
2022/01/06 01:58:16;;;;;;;3.73;3.37;;;;;;;;;;5072532;28;20469;-54
2022/01/06 02:00:42;;;;;;;4.23;3.40;;;;;;;;;;5072504;28;20765;-60
2022/01/06 02:03:08;;;;;;;4.07;3.10;;;;;;;;;;5072463;28;20415;-60
2022/01/06 02:05:34;;;;;;;3.93;3.27;;;;;;;;;;5072081;28;20863;-50
2022/01/06 02:08:00;;;;;;;8.83;3.60;;;;;;;;;;5087546;28;20415;-51
2022/01/06 02:10:27;;;;;;;16.93;3.93;;;;;;;;;;5071815;28;20490;-51
2022/01/06 02:12:55;;;;;;;7.83;3.63;;;;;;;;;;5072006;28;20449;-52
2022/01/06 02:15:22;;;;;;;9.87;3.60;;;;;;;;;;5071686;28;20403;-51
2022/01/06 02:17:48;;;;;;;5.00;3.97;;;;;;;;;;5072101;28;20474;-52
2022/01/06 02:20:15;;;;;;;11.60;4.40;;;;;;;;;;5072288;28;20541;-53
2022/01/06 02:22:41;;;;;;;10.43;4.10;;;;;;;;;;5071794;28;20451;-51
2022/01/06 02:25:15;;;;;;;9.40;4.10;;;;;;;;;;5071858;28;20409;-52
2022/01/06 02:27:41;;;;;;;6.37;4.07;;;;;;;;;;5072101;28;20425;-52
2022/01/06 02:30:08;;;;;;;10.07;3.80;;;;;;;;;;5071737;28;20801;-53
2022/01/06 02:32:34;;;;;;;14.90;4.20;;;;;;;;;;5071791;28;20820;-52
2022/01/06 02:35:03;;;;;;;11.17;3.90;;;;;;;;;;5071531;28;20895;-51
2022/01/06 02:37:29;;;;;;;12.90;4.23;;;;;;;;;;5071397;28;20470;-51
2022/01/06 02:39:55;;;;;;;12.43;4.50;;;;;;;;;;5071736;28;20483;-53
2022/01/06 02:42:21;;;;;;;8.13;4.53;;;;;;;;;;5071665;28;20406;-50
2022/01/06 02:44:47;;;;;;;8.60;4.27;;;;;;;;;;5071727;28;20409;-51
2022/01/06 02:47:14;;;;;;;11.60;3.80;;;;;;;;;;5087038;28;20501;-53
2022/01/06 02:49:40;;;;;;;16.07;5.10;;;;;;;;;;5071827;28;20418;-52
2022/01/06 02:52:06;;;;;;;9.80;4.73;;;;;;;;;;5071609;28;20403;-52
2022/01/06 02:54:32;;;;;;;8.13;4.33;;;;;;;;;;5071671;28;20465;-51
2022/01/06 02:56:58;;;;;;;11.93;4.67;;;;;;;;;;5071776;28;20549;-51
2022/01/06 02:59:24;;;;;;;11.43;3.63;;;;;;;;;;5071958;28;20448;-52
2022/01/06 03:01:50;;;;;;;5.80;3.20;;;;;;;;;;5075722;28;20398;-51
2022/01/06 03:04:16;;;;;;;8.37;3.80;;;;;;;;;;5075868;28;20403;-51
2022/01/06 03:06:42;;;;;;;6.10;3.80;;;;;;;;;;5075567;28;20407;-54
2022/01/06 03:09:08;;;;;;;16.50;4.57;;;;;;;;;;5075865;28;20983;-51
2022/01/06 03:11:40;;;;;;;4.80;3.73;;;;;;;;;;5075768;28;20456;-51
2022/01/06 03:14:06;;;;;;;4.17;3.77;;;;;;;;;;5075654;28;20413;-53
2022/01/06 03:16:32;;;;;;;4.90;4.40;;;;;;;;;;5075704;28;20403;-51
2022/01/06 03:18:58;;;;;;;8.87;3.73;;;;;;;;;;5075616;28;20438;-56
2022/01/06 03:21:24;;;;;;;4.13;3.73;;;;;;;;;;5075542;28;20903;-52
2022/01/06 03:23:50;;;;;;;4.97;4.47;;;;;;;;;;5075554;28;20433;-52
2022/01/06 03:26:16;;;;;;;7.10;4.10;;;;;;;;;;5075671;28;20442;-53
2022/01/06 03:28:42;;;;;;;5.43;4.80;;;;;;;;;;5075550;28;20418;-53
2022/01/06 03:31:08;;;;;;;8.90;5.40;;;;;;;;;;5075329;28;20771;-51
2022/01/06 03:33:34;;;;;;;9.47;5.77;;;;;;;;;;5075449;28;20410;-51
2022/01/06 03:36:00;;;;;;;7.73;5.30;;;;;;;;;;5075686;28;20406;-53
2022/01/06 03:38:26;;;;;;;8.10;4.87;;;;;;;;;;5075302;28;20481;-54
2022/01/06 03:40:52;;;;;;;4.30;4.00;;;;;;;;;;5075395;28;20895;-50
2022/01/06 03:43:19;;;;;;;5.83;4.43;;;;;;;;;;5075363;28;20815;-51
2022/01/06 03:45:45;;;;;;;7.13;3.83;;;;;;;;;;5075752;28;20461;-52
2022/01/06 03:48:11;;;;;;;4.80;4.40;;;;;;;;;;5075292;28;20560;-52
2022/01/06 03:50:37;;;;;;;9.43;4.37;;;;;;;;;;5075463;28;20407;-52
2022/01/06 03:53:03;;;;;;;4.23;3.93;;;;;;;;;;5074921;28;20799;-54
2022/01/06 03:55:29;;;;;;;11.20;4.00;;;;;;;;;;5074986;28;20411;-50
2022/01/06 03:57:55;;;;;;;4.57;4.20;;;;;;;;;;5074880;28;20481;-54
2022/01/06 04:00:22;;;;;;;4.87;4.50;;;;;;;;;;5074945;28;20406;-52
2022/01/06 04:02:48;;;;;;;5.43;4.03;;;;;;;;;;5074915;28;20414;-51
2022/01/06 04:05:14;;;;;;;9.17;4.60;;;;;;;;;;5074840;28;20411;-51
2022/01/06 04:07:41;;;;;;;5.20;3.67;;;;;;;;;;5074636;28;20422;-51
2022/01/06 04:10:08;;;;;;;8.70;4.37;;;;;;;;;;5074721;28;20410;-51
2022/01/06 04:12:35;;;;;;;5.73;3.70;;;;;;;;;;5073181;28;20417;-55
2022/01/06 04:15:01;;;;;;;4.93;3.80;;;;;;;;;;5074549;28;20413;-53
2022/01/06 04:17:27;;;;;;;6.77;4.10;;;;;;;;;;5074572;28;20524;-51
2022/01/06 04:19:53;;;;;;;4.23;3.80;;;;;;;;;;5074463;28;20836;-50
2022/01/06 04:22:19;;;;;;;4.73;3.63;;;;;;;;;;5074493;28;20411;-52
2022/01/06 04:24:45;;;;;;;3.40;3.27;;;;;;;;;;5074852;28;20548;-53
2022/01/06 04:27:12;;;;;;;4.10;3.80;;;;;;;;;;5089822;28;20419;-51
2022/01/06 04:29:38;;;;;;;5.37;4.20;;;;;;;;;;5074329;28;20399;-51
2022/01/06 04:32:04;;;;;;;10.17;4.20;;;;;;;;;;5074206;28;20495;-51
2022/01/06 04:34:31;;;;;;;6.07;4.07;;;;;;;;;;5074248;28;20425;-50
2022/01/06 04:36:59;;;;;;;3.80;3.60;;;;;;;;;;5074141;28;20450;-51
2022/01/06 04:39:25;;;;;;;6.73;3.67;;;;;;;;;;5074392;28;20418;-52
2022/01/06 04:41:51;;;;;;;4.50;4.10;;;;;;;;;;5074271;28;20740;-52
2022/01/06 04:44:17;;;;;;;6.63;3.90;;;;;;;;;;5074207;28;20472;-50
2022/01/06 04:46:43;;;;;;;3.67;3.40;;;;;;;;;;5074401;28;20411;-51
2022/01/06 04:49:10;;;;;;;9.80;4.27;;;;;;;;;;5073892;28;20425;-50
2022/01/06 04:51:36;;;;;;;4.33;3.90;;;;;;;;;;5074176;28;20435;-52
2022/01/06 04:54:02;;;;;;;6.17;3.97;;;;;;;;;;5073977;28;20448;-51
2022/01/06 04:56:35;;;;;;;3.53;3.33;;;;;;;;;;5073967;28;20403;-51
2022/01/06 04:59:01;;;;;;;6.60;2.90;;;;;;;;;;5073730;28;20442;-51
2022/01/06 05:01:27;;;;;;;4.10;3.80;;;;;;;;;;5073890;28;20449;-49
2022/01/06 05:03:53;;;;;;;3.60;3.40;;;;;;;;;;5073838;28;20411;-53
2022/01/06 05:06:19;;;;;;;4.20;3.90;;;;;;;;;;5073622;28;20724;-50
2022/01/06 05:08:45;;;;;;;3.33;3.23;;;;;;;;;;5073701;28;20411;-50
2022/01/06 05:11:11;;;;;;;6.60;4.00;;;;;;;;;;5089050;28;20911;-53
2022/01/06 05:13:37;;;;;;;3.97;3.47;;;;;;;;;;5073499;28;20388;-51
2022/01/06 05:16:03;;;;;;;7.53;3.67;;;;;;;;;;5073702;28;20414;-50
2022/01/06 05:18:29;;;;;;;5.60;3.97;;;;;;;;;;5073499;28;20474;-52
2022/01/06 05:20:55;;;;;;;3.70;3.40;;;;;;;;;;5073255;28;20454;-53
2022/01/06 05:23:21;;;;;;;3.57;3.37;;;;;;;;;;5072769;28;20476;-54
2022/01/06 05:25:47;;;;;;;5.17;3.80;;;;;;;;;;5073665;28;20453;-56
2022/01/06 05:28:13;;;;;;;8.00;4.00;;;;;;;;;;5073249;28;20415;-51
2022/01/06 05:30:39;;;;;;;4.37;3.97;;;;;;;;;;5072139;28;20406;-52
2022/01/06 05:33:05;;;;;;;3.30;3.20;;;;;;;;;;5073052;28;20915;-54
2022/01/06 05:35:31;;;;;;;10.83;4.27;;;;;;;;;;5073125;28;20445;-54
2022/01/06 05:37:57;;;;;;;3.13;2.93;;;;;;;;;;5072995;28;20796;-52
2022/01/06 05:40:23;;;;;;;9.10;3.73;;;;;;;;;;5073054;28;20399;-51
2022/01/06 05:42:49;;;;;;;5.10;4.60;;;;;;;;;;5072854;28;20437;-53
2022/01/06 05:45:17;;;;;;;4.30;3.73;;;;;;;;;;5073014;28;20902;-54
2022/01/06 05:47:43;;;;;;;3.90;3.60;;;;;;;;;;5072839;28;20556;-55
2022/01/06 05:50:09;;;;;;;3.90;3.63;;;;;;;;;;5072778;28;20506;-53
2022/01/06 05:52:36;;;;;;;5.43;3.90;;;;;;;;;;5073095;28;20442;-54
2022/01/06 05:55:02;;;;;;;8.03;4.33;;;;;;;;;;5072808;28;20732;-55
2022/01/06 05:57:28;;;;;;;4.13;3.73;;;;;;;;;;5072597;28;20921;-51
2022/01/06 05:59:54;;;;;;;6.43;4.17;;;;;;;;;;5072809;28;20399;-56
2022/01/06 06:02:20;;;;;;;4.30;3.90;;;;;;;;;;5072533;28;20810;-53
2022/01/06 06:04:46;;;;;;;5.30;3.60;;;;;;;;;;5072545;28;20407;-52
2022/01/06 06:07:12;;;;;;;5.10;3.87;;;;;;;;;;5072474;28;20501;-53
2022/01/06 06:09:38;;;;;;;7.23;3.50;;;;;;;;;;5072513;28;20435;-56
2022/01/06 06:12:06;;;;;;;4.00;3.73;;;;;;;;;;5072469;28;20422;-53
2022/01/06 06:14:32;;;;;;;9.87;3.47;;;;;;;;;;5072706;28;20704;-53
2022/01/06 06:16:58;;;;;;;10.13;3.70;;;;;;;;;;5072199;28;20913;-56
2022/01/06 06:19:24;;;;;;;4.43;4.00;;;;;;;;;;5087826;28;20444;-51
2022/01/06 06:21:50;;;;;;;7.77;4.10;;;;;;;;;;5072043;28;20551;-54
2022/01/06 06:24:16;;;;;;;6.77;3.93;;;;;;;;;;5072333;28;20489;-52
2022/01/06 06:26:42;;;;;;;8.30;3.90;;;;;;;;;;5072222;28;20410;-52
2022/01/06 06:29:08;;;;;;;5.33;4.10;;;;;;;;;;5071933;28;20422;-52
2022/01/06 06:31:34;;;;;;;4.37;4.00;;;;;;;;;;5072157;28;20490;-56
2022/01/06 06:34:00;;;;;;;3.43;3.23;;;;;;;;;;5071609;28;20918;-55
2022/01/06 06:36:26;;;;;;;5.73;3.83;;;;;;;;;;5072087;28;20407;-55
2022/01/06 06:38:52;;;;;;;5.07;3.47;;;;;;;;;;5071556;28;20935;-54
2022/01/06 06:41:18;;;;;;;6.63;3.80;;;;;;;;;;5071969;28;20510;-52
2022/01/06 06:43:44;;;;;;;8.37;4.03;;;;;;;;;;5071675;28;20414;-58
2022/01/06 06:46:09;;;;;;;4.13;3.80;;;;;;;;;;5071750;28;20410;-53
2022/01/06 06:48:35;;;;;;;5.47;4.20;;;;;;;;;;5071640;28;20483;-52
2022/01/06 06:51:02;;;;;;;4.90;4.20;;;;;;;;;;5071591;28;20510;-53
2022/01/06 06:53:28;;;;;;;8.23;4.53;;;;;;;;;;5071834;28;20414;-51
2022/01/06 06:55:54;;;;;;;3.93;3.63;;;;;;;;;;5071577;28;20413;-53
2022/01/06 06:58:20;;;;;;;5.47;4.00;;;;;;;;;;5071414;28;20474;-51
2022/01/06 07:00:46;;;;;;;5.87;4.03;;;;;;;;;;5071678;28;20442;-53
2022/01/06 07:03:12;;;;;;;4.60;4.20;;;;;;;;;;5071474;28;20911;-52
2022/01/06 07:05:38;;;;;;;4.23;3.70;;;;;;;;;;5071540;28;20444;-54
2022/01/06 07:08:04;;;;;;;4.30;3.50;;;;;;;;;;5071502;28;20972;-55
2022/01/06 07:10:30;;;;;;;4.30;3.90;;;;;;;;;;5071541;28;20498;-54
2022/01/06 07:12:56;;;;;;;4.40;3.60;;;;;;;;;;5071669;28;20493;-57
2022/01/06 07:15:23;;;;;;;4.00;3.03;;;;;;;;;;5071584;28;20784;-57
2022/01/06 07:17:49;;;;;;;5.20;3.87;;;;;;;;;;5087302;28;20945;-52
2022/01/06 07:20:15;;;;;;;4.17;3.87;;;;;;;;;;5071088;28;20439;-53
2022/01/06 07:22:41;;;;;;;4.30;3.83;;;;;;;;;;5071492;28;20415;-57
2022/01/06 07:25:07;;;;;;;3.30;3.03;;;;;;;;;;5071689;28;20751;-53
2022/01/06 07:27:33;;;;;;;8.07;3.40;;;;;;;;;;5071414;28;20407;-56
2022/01/06 07:29:59;;;;;;;3.80;3.40;;;;;;;;;;5086659;28;20422;-54
2022/01/06 07:32:25;;;;;;;4.93;4.57;;;;;;;;;;5071247;28;20406;-55
2022/01/06 07:34:52;;;;;;;5.20;2.93;;;;;;;;;;5071112;28;20425;-58
2022/01/06 07:37:19;;;;;;;4.43;3.40;;;;;;;;;;5071362;28;20555;-52
2022/01/06 07:39:45;;;;;;;3.90;3.60;;;;;;;;;;5071373;28;20899;-54
2022/01/06 07:42:11;;;;;;;4.33;3.63;;;;;;;;;;5071249;28;20417;-56
2022/01/06 07:44:37;;;;;;;7.23;4.37;;;;;;;;;;5071074;28;20407;-56
2022/01/06 07:47:03;;;;;;;5.40;3.87;;;;;;;;;;5074050;28;20510;-55
2022/01/06 07:49:29;;;;;;;7.73;4.60;;;;;;;;;;5074960;28;20802;-55
2022/01/06 07:51:55;;;;;;;3.77;3.20;;;;;;;;;;5074548;28;20434;-59
2022/01/06 07:54:22;;;;;;;4.50;4.10;;;;;;;;;;5074600;28;20407;-57
2022/01/06 07:56:48;;;;;;;3.70;3.40;;;;;;;;;;5074509;28;20411;-55
2022/01/06 07:59:14;;;;;;;4.37;4.17;;;;;;;;;;5074511;28;20413;-56
2022/01/06 08:01:40;;;;;;;4.93;3.50;;;;;;;;;;5074300;28;20410;-57
2022/01/06 08:04:06;;;;;;;3.10;2.90;;;;;;;;;;5072900;28;20417;-57
2022/01/06 08:06:32;;;;;;;5.63;3.73;;;;;;;;;;5073901;28;20403;-55
2022/01/06 08:08:58;;;;;;;3.60;3.30;;;;;;;;;;5073585;28;20764;-54
2022/01/06 08:11:24;;;;;;;9.67;3.50;;;;;;;;;;5074298;28;20414;-53
2022/01/06 08:13:50;;;;;;;4.80;3.37;;;;;;;;;;5074449;28;20409;-57
2022/01/06 08:16:16;;;;;;;2.40;2.30;;;;;;;;;;5074520;28;20403;-55
2022/01/06 08:18:42;;;;;;;4.17;3.87;;;;;;;;;;5074861;28;20481;-54
2022/01/06 08:21:08;;;;;;;3.80;3.37;;;;;;;;;;5074192;28;20496;-53
2022/01/06 08:23:34;;;;;;;3.40;3.10;;;;;;;;;;5074409;28;20442;-55
2022/01/06 08:26:00;;;;;;;4.40;4.00;;;;;;;;;;5073403;28;20948;-55
2022/01/06 08:28:26;;;;;;;3.73;3.43;;;;;;;;;;5074660;28;20406;-57
2022/01/06 08:30:52;;;;;;;4.10;3.47;;;;;;;;;;5074141;28;20406;-53
2022/01/06 08:33:18;;;;;;;3.80;3.50;;;;;;;;;;5074445;28;20403;-56
2022/01/06 08:35:44;;;;;;;3.27;3.07;;;;;;;;;;5074374;28;20544;-54
2022/01/06 08:38:10;;;;;;;4.33;3.70;;;;;;;;;;5088854;28;20561;-58
2022/01/06 08:40:36;;;;;;;4.40;4.20;;;;;;;;;;5072742;28;20895;-54
2022/01/06 08:43:02;;;;;;;3.90;3.40;;;;;;;;;;5069813;28;20517;-58
2022/01/06 08:45:30;;;;;;;4.10;3.80;;;;;;;;;;5063591;28;20983;-56
2022/01/06 08:47:56;;;;;;;7.43;3.80;;;;;;;;;;5064919;28;20414;-57
2022/01/06 08:50:22;;;;;;;5.93;4.10;;;;;;;;;;5060486;28;20427;-57
2022/01/06 08:52:48;;;;;;;4.37;3.97;;;;;;;;;;5052649;28;20497;-53
2022/01/06 08:55:14;;;;;;;4.17;3.83;;;;;;;;;;5054198;28;20748;-54
2022/01/06 08:57:40;;;;;;;10.47;4.17;;;;;;;;;;5071249;28;20466;-55
2022/01/06 09:00:08;;;;;;;4.30;3.90;;;;;;;;;;5072093;28;20510;-56
2022/01/06 09:02:35;;;;;;;4.17;3.77;;;;;;;;;;5061502;28;20519;-56
2022/01/06 09:05:03;;;;;;;7.13;4.10;;;;;;;;;;5052525;28;20411;-58
2022/01/06 09:07:29;;;;;;;4.73;4.33;;;;;;;;;;5052314;28;20411;-58
2022/01/06 09:09:55;;;;;;;4.17;3.93;;;;;;;;;;5052034;28;20408;-57
2022/01/06 09:12:21;;;;;;;5.73;3.93;;;;;;;;;;5051624;28;20426;-53
2022/01/06 09:14:47;;;;;;;6.90;3.77;;;;;;;;;;5066008;28;20543;-55
2022/01/06 09:17:13;;;;;;;6.07;4.07;;;;;;;;;;5071830;28;20491;-53
2022/01/06 09:19:39;;;;;;;5.57;4.20;;;;;;;;;;5072442;28;20382;-54
2022/01/06 09:22:05;;;;;;;7.57;3.73;;;;;;;;;;5071771;28;20484;-52
2022/01/06 09:24:31;;;;;;;6.30;3.97;;;;;;;;;;5087122;28;20419;-52
2022/01/06 09:26:57;;;;;;;6.33;4.60;;;;;;;;;;5071671;28;20414;-54
2022/01/06 09:29:23;;;;;;;8.77;3.57;;;;;;;;;;5071516;28;20410;-53
2022/01/06 09:31:49;;;;;;;4.63;3.63;;;;;;;;;;5071278;28;20403;-54
2022/01/06 09:34:18;;;;;;;7.23;4.27;;;;;;;;;;5087165;28;20415;-54
2022/01/06 09:36:44;;;;;;;3.77;3.47;;;;;;;;;;5069656;28;20425;-55
2022/01/06 09:39:11;;;;;;;5.57;4.00;;;;;;;;;;5067461;28;20422;-54
2022/01/06 09:41:37;;;;;;;4.87;4.27;;;;;;;;;;5071554;28;20419;-53
2022/01/06 09:44:03;;;;;;;4.20;3.80;;;;;;;;;;5074846;28;20432;-53
2022/01/06 09:46:30;;;;;;;3.63;3.43;;;;;;;;;;5051248;28;20946;-53
2022/01/06 09:48:59;;;;;;;6.40;4.77;;;;;;;;;;5051339;28;20925;-54
2022/01/06 09:51:26;;;;;;;7.80;4.10;;;;;;;;;;5051383;28;20416;-52
2022/01/06 09:53:57;;;;;;;9.10;4.00;;;;;;;;;;5070715;28;20522;-58
2022/01/06 09:56:24;;;;;;;6.23;3.20;;;;;;;;;;5057819;28;20422;-51
2022/01/06 09:58:50;;;;;;;5.53;3.63;;;;;;;;;;5051408;28;20529;-56
2022/01/06 10:01:16;;;;;;;3.60;3.30;;;;;;;;;;5051203;28;20865;-56
2022/01/06 10:03:44;;;;;;;4.17;3.87;;;;;;;;;;5051545;28;20411;-56
2022/01/06 10:06:23;;;;;;;4.43;4.03;;;;;;;;;;5051761;28;20417;-56
2022/01/06 10:08:51;;;;;;;4.80;3.17;;;;;;;;;;5054489;28;20431;-57
2022/01/06 10:11:21;;;;;;;2.87;2.77;;;;;;;;;;5071949;28;20453;-55
2022/01/06 10:13:58;;;;;;;4.07;3.67;;;;;;;;;;5087419;28;20459;-57
2022/01/06 10:16:25;;;;;;;4.77;4.33;;;;;;;;;;5071323;28;20974;-59
2022/01/06 10:19:00;;;;;;;3.50;3.30;;;;;;;;;;5071433;28;20466;-55
2022/01/06 10:21:29;;;;;;;7.00;3.70;;;;;;;;;;5071138;28;20454;-57
2022/01/06 10:23:59;;;;;;;5.17;3.50;;;;;;;;;;5071803;28;20889;-57
2022/01/06 10:26:25;;;;;;;14.03;4.70;;;;;;;;;;5072677;28;20521;-56
2022/01/06 10:28:51;;;;;;;4.20;3.80;;;;;;;;;;5087589;28;20450;-57
2022/01/06 10:31:18;;;;;;;4.13;3.80;;;;;;;;;;5072270;28;20904;-56
2022/01/06 10:33:44;;;;;;;9.63;4.20;;;;;;;;;;5052289;28;20415;-56
2022/01/06 10:36:10;;;;;;;3.87;3.67;;;;;;;;;;5051975;28;20400;-57
2022/01/06 10:38:36;;;;;;;5.73;4.07;;;;;;;;;;5058593;28;20892;-56
2022/01/06 10:41:13;;;;;;;4.73;4.00;;;;;;;;;;5071302;28;20406;-56
2022/01/06 10:43:39;;;;;;;6.93;4.47;;;;;;;;;;5071506;28;20427;-56
2022/01/06 10:46:05;;;;;;;4.50;4.10;;;;;;;;;;5070879;28;20494;-57
2022/01/06 10:48:31;;;;;;;5.73;4.00;;;;;;;;;;5071249;28;20406;-55
2022/01/06 10:50:58;;;;;;;9.33;4.47;;;;;;;;;;5071187;28;20406;-57
2022/01/06 10:53:24;;;;;;;5.77;4.00;;;;;;;;;;5071171;28;20502;-56
2022/01/06 10:55:50;;;;;;;4.40;4.00;;;;;;;;;;5070872;28;20403;-55
2022/01/06 10:58:20;;;;;;;4.00;3.70;;;;;;;;;;5070843;28;20868;-60
2022/01/06 11:00:52;;;;;;;4.10;3.80;;;;;;;;;;5071840;28;20472;-56
2022/01/06 11:03:22;;;;;;;4.47;3.90;;;;;;;;;;5071386;28;20422;-55
2022/01/06 11:05:52;;;;;;;5.97;3.83;;;;;;;;;;5070830;28;20899;-57
2022/01/06 11:08:20;;;;;;;4.10;3.80;;;;;;;;;;5070899;28;20415;-55
2022/01/06 11:10:50;;;;;;;3.90;3.53;;;;;;;;;;5071063;28;20403;-59
2022/01/06 11:13:17;;;;;;;5.93;3.63;;;;;;;;;;5059665;28;20427;-56
2022/01/06 11:15:43;;;;;;;3.40;3.20;;;;;;;;;;5067959;28;20426;-58
2022/01/06 11:18:09;;;;;;;4.30;4.00;;;;;;;;;;5072205;28;20468;-58
2022/01/06 11:20:36;;;;;;;4.80;4.20;;;;;;;;;;5072713;28;20461;-57
2022/01/06 11:23:02;;;;;;;9.27;4.10;;;;;;;;;;5091848;28;20434;-57
2022/01/06 11:25:31;;;;;;;3.90;3.70;;;;;;;;;;5075982;28;20409;-60
2022/01/06 11:28:01;;;;;;;4.07;3.67;;;;;;;;;;5075916;28;20786;-59
2022/01/06 11:30:38;;;;;;;4.50;3.50;;;;;;;;;;5076088;28;20806;-58
2022/01/06 11:33:04;;;;;;;6.17;4.13;;;;;;;;;;5076084;28;20426;-58
2022/01/06 11:35:30;;;;;;;5.10;4.17;;;;;;;;;;5076153;28;20406;-58
2022/01/06 11:37:57;;;;;;;4.27;3.87;;;;;;;;;;5075955;28;20465;-57
2022/01/06 11:40:33;;;;;;;4.30;3.50;;;;;;;;;;5075922;28;20900;-59
2022/01/06 11:43:00;;;;;;;4.23;3.40;;;;;;;;;;5074949;28;20390;-58
2022/01/06 11:45:26;;;;;;;6.33;4.27;;;;;;;;;;5075770;28;20910;-57
2022/01/06 11:48:02;;;;;;;4.67;4.27;;;;;;;;;;5075829;28;20764;-60
2022/01/06 11:50:28;;;;;;;4.10;3.80;;;;;;;;;;5075760;28;20896;-57
2022/01/06 11:52:59;;;;;;;4.47;3.70;;;;;;;;;;5075656;28;20410;-57
2022/01/06 11:55:33;;;;;;;4.93;4.43;;;;;;;;;;5075663;28;20544;-58
2022/01/06 11:58:07;;;;;;;6.30;4.50;;;;;;;;;;5075170;28;20470;-58
2022/01/06 12:00:35;;;;;;;3.93;3.70;;;;;;;;;;5073645;28;20409;-58
2022/01/06 12:03:10;;;;;;;4.70;3.90;;;;;;;;;;5074339;28;20493;-57
2022/01/06 12:05:48;;;;;;;5.93;4.47;;;;;;;;;;5090683;28;20429;-58
2022/01/06 12:08:15;;;;;;;4.47;4.10;;;;;;;;;;5091084;28;20425;-57
2022/01/06 12:10:42;;;;;;;5.57;4.17;;;;;;;;;;5075281;28;20911;-59
2022/01/06 12:13:08;;;;;;;5.23;4.67;;;;;;;;;;5075222;28;20564;-58
2022/01/06 12:15:47;;;;;;;4.40;4.03;;;;;;;;;;5075296;28;20752;-58
2022/01/06 12:18:17;;;;;;;6.93;4.30;;;;;;;;;;5075070;28;20897;-58
2022/01/06 12:20:45;;;;;;;4.20;3.90;;;;;;;;;;5074920;28;20460;-58
2022/01/06 12:23:11;;;;;;;7.30;4.00;;;;;;;;;;5075066;28;20422;-58
2022/01/06 12:25:37;;;;;;;4.73;4.33;;;;;;;;;;5074923;28;20403;-58
2022/01/06 12:28:03;;;;;;;4.27;3.87;;;;;;;;;;5090663;28;20767;-59
2022/01/06 12:30:34;;;;;;;3.77;3.57;;;;;;;;;;5075047;28;20411;-58
2022/01/06 12:33:02;;;;;;;4.00;3.70;;;;;;;;;;5073889;28;20892;-58
2022/01/06 12:35:38;;;;;;;3.90;3.63;;;;;;;;;;5074927;28;20430;-58
2022/01/06 12:38:04;;;;;;;4.07;3.77;;;;;;;;;;5075054;28;20818;-61
2022/01/06 12:40:34;;;;;;;4.33;3.93;;;;;;;;;;5074770;28;20414;-59
2022/01/06 12:43:00;;;;;;;6.13;4.40;;;;;;;;;;5074771;28;20498;-57
2022/01/06 12:45:26;;;;;;;6.47;4.63;;;;;;;;;;5074706;28;20783;-58
2022/01/06 12:47:52;;;;;;;4.97;4.37;;;;;;;;;;5074675;28;20411;-57
2022/01/06 12:50:18;;;;;;;4.70;4.30;;;;;;;;;;5074529;28;20402;-57
2022/01/06 12:52:47;;;;;;;4.77;4.37;;;;;;;;;;5074675;28;20429;-58
2022/01/06 12:55:13;;;;;;;5.87;3.63;;;;;;;;;;5074293;28;20403;-58
2022/01/06 12:57:39;;;;;;;3.73;3.50;;;;;;;;;;5074350;28;20474;-59
2022/01/06 13:00:12;;;;;;;3.77;3.57;;;;;;;;;;5074333;28;20407;-58
2022/01/06 13:02:38;;;;;;;3.87;3.57;;;;;;;;;;5074257;28;20407;-57
2022/01/06 13:05:05;;;;;;;4.87;3.63;;;;;;;;;;5074445;28;20487;-58
2022/01/06 13:07:32;;;;;;;5.23;3.97;;;;;;;;;;5074273;28;20439;-57
2022/01/06 13:09:58;;;;;;;4.47;3.97;;;;;;;;;;5089812;28;20425;-58
2022/01/06 13:12:25;;;;;;;4.67;4.23;;;;;;;;;;5074202;28;20489;-58
2022/01/06 13:14:52;;;;;;;9.27;3.87;;;;;;;;;;5074179;28;20406;-58
2022/01/06 13:17:47;;;;;;;4.00;3.70;;;;;;;;;;5074232;28;20450;-60
2022/01/06 13:20:15;;;;;;;3.40;3.20;;;;;;;;;;5085171;28;20454;-59
2022/01/06 13:25:24;;;;;;;3.40;3.20;;;;;;;;;;5074230;28;20498;-62
2022/01/06 13:27:57;;;;;;;3.70;3.47;;;;;;;;;;5073892;28;20407;-59
2022/01/06 13:30:34;;;;;;;7.20;3.90;;;;;;;;;;5073980;28;20414;-62
2022/01/06 13:33:01;;;;;;;4.00;3.40;;;;;;;;;;5073886;28;20402;-57
2022/01/06 13:35:27;;;;;;;3.67;3.37;;;;;;;;;;5074085;28;20415;-60
2022/01/06 13:37:53;;;;;;;3.80;3.50;;;;;;;;;;5073724;28;20473;-57
2022/01/06 13:40:19;;;;;;;4.33;3.40;;;;;;;;;;5073695;28;20505;-57
2022/01/06 13:42:45;;;;;;;4.30;3.87;;;;;;;;;;5073795;28;20415;-60
2022/01/06 13:52:57;;;;;;;4.10;3.77;;;;;;;;;;5073717;28;20460;-62
2022/01/06 13:55:23;;;;;;;6.90;3.80;;;;;;;;;;5073548;28;20409;-60
2022/01/06 13:57:49;;;;;;;8.30;4.43;;;;;;;;;;5073460;28;20470;-57
2022/01/06 14:00:17;;;;;;;4.40;4.00;;;;;;;;;;5073327;28;20901;-58
2022/01/06 14:02:44;;;;;;;6.27;3.40;;;;;;;;;;5072832;28;20425;-57
2022/01/06 14:05:10;;;;;;;7.10;4.37;;;;;;;;;;5072908;28;20860;-59
2022/01/06 14:07:37;;;;;;;4.60;4.30;;;;;;;;;;5073429;28;20643;-58
2022/01/06 14:10:05;;;;;;;5.23;4.20;;;;;;;;;;5072956;28;20437;-59
2022/01/06 14:12:31;;;;;;;4.43;4.03;;;;;;;;;;5073043;28;20918;-57
2022/01/06 14:14:57;;;;;;;6.17;3.80;;;;;;;;;;5072971;28;20411;-58
2022/01/06 14:17:23;;;;;;;5.33;4.00;;;;;;;;;;5072908;28;20466;-57
2022/01/06 14:19:49;;;;;;;4.27;3.87;;;;;;;;;;5072668;28;20498;-57
2022/01/06 14:22:15;;;;;;;9.57;4.27;;;;;;;;;;5072874;28;20843;-59
2022/01/06 14:24:42;;;;;;;7.13;4.07;;;;;;;;;;5072669;28;20457;-58
2022/01/06 14:27:08;;;;;;;3.47;3.37;;;;;;;;;;5072881;28;20493;-59
2022/01/06 14:29:35;;;;;;;4.03;3.73;;;;;;;;;;5072670;28;20453;-59
2022/01/06 14:32:01;;;;;;;4.10;3.90;;;;;;;;;;5072643;28;20438;-57
2022/01/06 14:34:27;;;;;;;11.17;3.70;;;;;;;;;;5072868;28;20891;-58
2022/01/06 14:36:53;;;;;;;6.60;3.57;;;;;;;;;;5072579;28;20414;-58
2022/01/06 14:39:19;;;;;;;9.80;3.73;;;;;;;;;;5072627;28;20425;-57
2022/01/06 14:41:46;;;;;;;4.40;4.00;;;;;;;;;;5072735;28;20440;-57
2022/01/06 14:44:12;;;;;;;3.90;3.60;;;;;;;;;;5072845;28;20763;-58
2022/01/06 14:46:38;;;;;;;5.53;4.00;;;;;;;;;;5072492;28;20510;-58
2022/01/06 14:49:04;;;;;;;15.60;4.00;;;;;;;;;;5072512;28;20503;-57
2022/01/06 14:51:30;;;;;;;4.27;3.90;;;;;;;;;;5073032;28;20728;-59
2022/01/06 14:53:56;;;;;;;3.60;3.27;;;;;;;;;;5072490;28;20555;-57
2022/01/06 14:56:22;;;;;;;4.07;3.67;;;;;;;;;;5071743;28;20492;-57
2022/01/06 14:58:48;;;;;;;6.53;4.00;;;;;;;;;;5072566;28;20498;-58
2022/01/06 15:01:14;;;;;;;3.30;3.17;;;;;;;;;;5072771;28;20407;-57